Weather observations for the past three days for
Tarboro-Edgecombe Airport
Imperial (Metric)
Date Time (edt) Wind (mph) Vis. (mi.) Weather Sky Cond. Temperature (ºF) Relative Humidity Wind Chill (°F) Heat Index (°F) Pressure Precipitation (in)
Air Dwpt 6 hour altimeter (in) sea level (mb) 1 hr 3 hr 6 hr
Max. Min.
04 01:30 SE 3 10.00 Fair CLR 41.5 41.2 99% 30.07 0.0
04 01:10 Calm 7.00 Fair CLR 40.6 40.3 99% 30.07 0.0
04 00:30 Calm 10.00 Fair CLR 41 40.5 98% 30.07 0.0
04 00:10 Calm 7.00 Fair CLR 41.4 40.8 98% 30.07 0.0
03 23:50 Calm 10.00 Fair CLR 41.9 41.4 98% 30.07 0.0
03 23:30 Calm 7.00 Fair CLR 42.1 41.5 98% 30.06 0.0
03 23:10 Calm 7.00 Fair CLR 42.8 42.3 98% 30.07 0.0
03 22:50 Calm 5.00 Fog/Mist CLR 43.2 42.4 97% 30.07 0.0
03 22:30 Calm 10.00 Fair CLR 44.1 43.3 97% 30.07 0.0
03 22:10 Calm 10.00 Fair CLR 44.2 43.3 97% 30.07 0.0
03 21:50 Calm 10.00 Fair CLR 45 44.1 97% 30.06 0.0
03 21:30 Calm 10.00 Fair CLR 45.7 44.4 95% 30.06 0.0
03 21:10 Calm 10.00 Fair CLR 46.2 44.1 92% 30.05 0.0
03 20:50 Calm 10.00 Fair CLR 47.7 44.8 90% 30.04 0.0
03 20:30 Calm 10.00 Fair CLR 48.7 45.3 88% 30.03 0.0
03 20:10 Calm 10.00 Fair CLR 50.9 45.1 81% 30.03 0.0
03 19:50 Calm 7.00 Fair CLR 54.7 41.4 65.5 54.3 61% 30.02 0.0
03 19:30 Calm 10.00 Fair CLR 59.4 36 42% 30.03 0.0
03 19:10 W 6 10.00 Fair CLR 62.8 30.7 30% 30.02 0.0
03 18:50 W 6 10.00 Fair CLR 63.7 30.7 29% 30.01 0.0
03 18:30 NW 8 10.00 Fair CLR 64 30.6 28% 30.01 0.0
03 18:10 W 8 10.00 Fair CLR 64.6 30.9 28% 30.02 0.0
03 17:50 W 7 10.00 Fair CLR 64.9 31.5 29% 30.01 0.0
03 17:30 W 10 7.00 Fair CLR 64.6 30.9 28% 30.01 0.0
03 17:10 W 10 7.00 Fair CLR 64.9 30.9 28% 30.02 0.0
03 16:50 NW 7 7.00 Fair CLR 64.6 30.7 28% 30.02 0.0
03 16:30 W 9 10.00 Fair CLR 64.4 30.9 29% 30.02 0.0
03 16:10 W 13 G 17 7.00 Fair CLR 64.2 31.1 29% 30.02 0.0
03 15:50 NW 10 7.00 Fair CLR 63.7 31.6 30% 30.03 0.0
03 15:30 W 12 10.00 Fair CLR 64 31.5 30% 30.04 0.0
03 15:10 SW 5 7.00 Fair CLR 63 32.2 32% 30.04 0.0
03 14:50 W 13 G 18 7.00 Fair CLR 62.8 32.5 32% 30.05 0.0
03 14:30 W 14 G 17 10.00 Fair CLR 62.6 31.6 31% 30.05 0.0
03 14:10 NW 9 10.00 Fair CLR 62.2 32.5 33% 30.06 0.0
03 13:50 W 7 G 20 7.00 Fair CLR 61.9 32.7 62.6 46.2 34% 30.06 0.0
03 13:30 NW 3 7.00 Fair CLR 60.8 32 34% 30.07 0.0
03 13:10 NW 10 G 18 10.00 Fair CLR 59.7 32 35% 30.07 0.0
03 12:50 N 10 G 20 10.00 Fair CLR 59.2 31.5 35% 30.08 0.0
03 12:30 W 15 G 20 10.00 Fair CLR 60.1 33.1 36% 30.08 0.0
03 12:10 W 17 G 22 7.00 Fair CLR 59.2 32.2 36% 30.09 0.0
03 11:50 NW 12 7.00 Fair CLR 58.3 33.3 39% 30.1 0.0
03 11:30 NW 9 G 16 10.00 Fair CLR 57.9 32.5 38% 30.1 0.0
03 11:10 W 10 G 18 7.00 Fair CLR 57 32 39% 30.1 0.0
03 10:50 W 13 G 18 7.00 Fair CLR 57 31.6 38% 30.1 0.0
03 10:30 NW 12 G 18 7.00 Fair CLR 56.1 30.7 38% 30.1 0.0
03 10:10 W 13 G 17 7.00 Fair CLR 55.4 36.1 48% 30.1 0.0
03 09:50 NW 8 10.00 Fair CLR 54.1 38.5 56% 30.1 0.0
03 09:30 W 9 7.00 Fair CLR 53.1 41 64% 30.1 0.0
03 09:10 NW 8 7.00 Fair CLR 51.6 41.2 68% 30.09 0.0
03 08:50 NW 8 7.00 Fair CLR 50 40.1 69% 47 30.1 0.0
03 08:30 W 7 10.00 Fair CLR 49.1 41 74% 47 30.09 0.0
03 08:10 NW 7 7.00 Fair CLR 47.5 40.1 76% 45 30.08 0.0
03 07:50 W 5 10.00 Fair CLR 46 39.9 46.2 39.7 79% 44 30.07 0.0
03 07:30 W 5 10.00 Fair CLR 44.2 40.3 86% 42 30.06 0.0
03 07:10 W 3 10.00 Fair CLR 42.1 39.9 92% 30.06 0.0
03 06:50 Calm 10.00 Fair CLR 40.1 38.5 94% 30.05 0.0
03 06:30 W 3 10.00 Fair CLR 40.3 38.1 92% 30.03 0.0
03 06:10 W 3 10.00 Fair CLR 42.1 37.6 84% 30.02 0.0
03 05:50 NW 6 10.00 Fair CLR 42.4 37.9 84% 39 30.01 0.0
03 05:30 W 3 10.00 Fair CLR 41.5 38.1 88% 30 0.0
03 05:10 W 5 10.00 Fair CLR 41.7 39.4 91% 39 29.99 0.0
03 04:50 SW 5 10.00 Fair CLR 41.7 39.4 91% 39 29.98 0.0
03 04:30 W 3 10.00 Fair CLR 42.6 40.1 91% 29.97 0.0
03 04:10 W 5 10.00 Fair CLR 43.7 41.4 92% 42 29.97 0.0
03 03:50 W 6 10.00 Fair CLR 43.9 43.2 97% 41 29.96 0.0
03 03:30 W 3 10.00 Fair CLR 45.1 44.8 99% 29.96 0.0
03 03:10 W 7 0.50 Fog BKN002 44.6 44.2 99% 41 29.95 0.0
03 02:50 W 3 0.25 Fog OVC002 44.6 44.2 99% 29.95 0.0
03 02:30 Calm 0.50 Fog OVC002 44.4 44.1 99% 29.94 0.0
03 02:10 Calm 0.25 Fog OVC002 45.1 44.8 99% 29.94 0.0
03 01:50 Calm 0.75 Fog/Mist SCT002 OVC060 46 45.7 51.8 45.9 99% 29.94 0.0
03 01:30 W 3 0.25 Fog OVC002 46 45.7 99% 29.95 0.0
03 01:10 Calm 0.25 Fog OVC002 46.6 46.2 99% 29.95 0.0
03 00:50 Calm 0.75 Fog/Mist VV005 47.7 46.9 97% 29.95 0.0
03 00:30 W 3 7.00 Fog/Mist CLR 49.8 49.3 98% 29.95 0.0
03 00:10 W 3 4.00 Fog/Mist CLR 49.8 49.1 97% 29.94 0.0
02 23:50 W 3 7.00 Fog/Mist CLR 50.4 49.5 97% 29.94 0.0
02 23:30 W 5 7.00 Fair CLR 50.7 49.8 97% 29.94 0.0
02 23:10 W 3 7.00 Fair CLR 51.1 50 96% 29.94 0.0
02 22:50 W 5 7.00 Partly Cloudy SCT120 51.1 50.2 97% 29.94 0.0
02 22:30 W 6 7.00 Partly Cloudy SCT120 50.9 50.2 97% 29.94 0.0
02 22:10 W 3 7.00 Fair CLR 51.1 50.4 97% 29.93 0.0
02 21:50 Calm 7.00 Partly Cloudy SCT090 51.1 50.4 97% 29.92 0.0
02 21:30 Calm 7.00 Overcast OVC090 51.3 50.7 98% 29.92 0.0
02 21:10 Calm 7.00 Overcast OVC080 51.4 50.9 98% 29.92 0.0
02 20:50 Calm 7.00 Fog/Mist OVC080 51.3 50.7 98% 29.91 0.0
02 20:30 Calm 5.00 Fog/Mist BKN080 51.3 50.5 97% 29.9 0.0
02 20:10 Calm 5.00 Fog/Mist SCT070 SCT110 51.4 50.7 97% 29.9 0.0
02 19:50 Calm 5.00 Fog/Mist SCT070 BKN100 BKN120 51.6 50.9 53.1 50.9 97% 29.9 0.0 0.04
02 19:30 Calm 7.00 Overcast SCT070 OVC100 52 50.9 96% 29.9 0.0
02 19:10 Calm 7.00 Fog/Mist OVC110 52.2 51.1 96% 29.89 0.0
02 18:50 Calm 10.00 Overcast SCT075 OVC100 52.7 49.1 88% 29.89 0.0
02 18:30 Calm 10.00 Overcast SCT075 OVC090 52.9 49.6 89% 29.88 0.0
02 18:10 Calm 10.00 Overcast OVC090 52.9 49.3 88% 29.88 0.0
02 17:50 NW 5 7.00 Light Rain SCT048 SCT060 OVC090 52.7 48.6 86% 29.88 0.0 0.01
02 17:30 N 3 7.00 Light Rain SCT046 BKN060 OVC090 52.5 47.7 84% 29.88 0.0 0.01
02 17:10 N 3 7.00 Light Rain BKN038 BKN046 OVC080 52.5 48.4 86% 29.88 0.0
02 16:50 N 3 7.00 Light Rain SCT010 SCT024 OVC033 52.3 49.1 89% 29.88 0.0 0.03
02 16:30 NW 3 7.00 Light Rain SCT010 SCT024 OVC031 52.7 50.2 91% 29.88 0.0
02 16:10 N 3 7.00 Light Rain SCT010 SCT021 OVC031 52.2 49.6 91% 29.89 0.0
02 15:50 N 6 7.00 Light Rain SCT010 SCT018 OVC029 51.8 48.9 90% 29.89 0.0 0.01
02 15:30 N 5 7.00 Light Rain SCT016 OVC029 51.8 48.9 90% 29.9 0.0
02 15:10 N 6 7.00 Light Rain Fog/Mist SCT008 OVC016 51.1 48.6 91% 29.89 0.0
02 14:50 N 7 5.00 Light Rain Fog/Mist BKN008 OVC012 51.6 49.1 91% 29.9 0.0 0.01
02 14:30 NE 6 7.00 Light Rain Fog/Mist SCT010 BKN075 OVC090 52.3 49.8 91% 29.9 0.0 0.01
02 14:10 NE 8 7.00 Light Rain SCT018 BKN022 OVC090 52 49.6 92% 29.9 0.0 0.01
02 13:50 N 8 7.00 Light Rain Fog/Mist SCT009 OVC016 51.8 49.3 54.1 51.6 91% 29.91 0.0 0.03 0.18
02 13:30 NE 7 5.00 Light Rain Fog/Mist BKN009 BKN025 OVC075 52.5 50.5 93% 29.91 0.0 0.02
02 13:10 NE 7 5.00 Light Rain Fog/Mist BKN011 BKN026 OVC075 52.7 50.2 91% 29.93 0.0
02 12:50 NE 6 5.00 Rain Fog/Mist BKN013 BKN028 OVC085 52.5 50 91% 29.94 0.0 0.02
02 12:30 NE 6 7.00 Light Rain Fog/Mist SCT050 SCT075 OVC085 52.5 49.8 91% 29.94 0.0 0.01
02 12:10 NE 7 7.00 Light Rain Fog/Mist SCT075 OVC085 52.5 49.5 89% 29.94 0.0
02 11:50 NE 7 7.00 Light Rain Fog/Mist BKN075 OVC085 52.3 49.5 90% 29.93 0.0 0.04
02 11:30 NE 9 5.00 Light Rain Fog/Mist OVC075 52.5 49.5 89% 29.94 0.0 0.04
02 11:10 N 8 4.00 Rain Fog/Mist SCT044 OVC075 52.7 49.8 90% 29.94 0.0 0.02
02 10:50 N 6 5.00 Light Rain Fog/Mist OVC075 53.1 50.5 91% 29.94 0.0 0.03 0.06
02 10:30 N 5 7.00 Light Rain Fog/Mist OVC075 53.2 50.2 89% 29.93 0.0 0.01
02 10:10 N 6 7.00 Light Rain Fog/Mist BKN075 OVC085 54 50.5 88% 29.92 0.0
02 09:50 N 7 7.00 Light Rain Fog/Mist SCT075 OVC085 53.8 50.4 88% 29.91 0.0 0.02
02 09:30 N 7 7.00 Light Rain Fog/Mist SCT075 OVC085 53.6 51.3 92% 29.91 0.0 0.01
02 09:10 NE 7 7.00 Light Rain Fog/Mist SCT075 OVC090 53.6 51.4 92% 29.9 0.0 0.01
02 08:50 N 6 7.00 Light Rain Fog/Mist SCT075 OVC090 53.4 51.1 92% 29.9 0.0 0.01
02 08:30 N 5 7.00 Light Rain Fog/Mist SCT075 OVC100 53.4 51.1 92% 29.9 0.0
02 08:10 N 3 7.00 Light Rain Fog/Mist OVC100 53.2 50.9 92% 29.9 0.0
02 07:50 NW 5 7.00 Light Rain Fog/Mist OVC090 53.2 50.7 54 52.7 91% 29.9 0.0 0.01 0.01
02 07:30 NW 6 7.00 Light Rain OVC090 53.1 50.7 92% 29.9 0.0
02 07:10 NW 6 7.00 Light Rain Fog/Mist OVC090 52.9 50.5 92% 29.9 0.0
02 06:50 W 6 5.00 Light Rain Fog/Mist SCT075 OVC090 53.2 50.5 91% 29.9 0.0
02 06:30 NW 5 10.00 Light Drizzle SCT075 OVC090 53.2 50.4 90% 29.89 0.0
02 06:10 NW 5 7.00 Overcast SCT050 SCT065 OVC100 53.2 50.4 90% 29.89 0.0
02 05:55 NW 3 7.00 Overcast SCT050 BKN085 OVC095 53.1 50.9 92% 29.89 0.0
02 05:30 Calm 7.00 Overcast BKN100 OVC120 53.1 50.5 91% 29.89 0.0
02 05:10 Calm 7.00 Mostly Cloudy BKN120 52.9 50.9 93% 29.88 0.0
02 04:50 Calm 7.00 Partly Cloudy SCT030 SCT120 53.4 50.7 91% 29.89 0.0
02 04:30 NW 3 7.00 Partly Cloudy SCT030 53.4 50.7 91% 29.89 0.0
02 04:10 NW 5 7.00 Fair CLR 53.4 50.9 91% 29.89 0.0
02 03:50 NW 5 7.00 Partly Cloudy SCT033 53.4 51.4 93% 29.88 0.0
02 03:30 Calm 7.00 Mostly Cloudy BKN035 53.6 51.3 92% 29.88 0.0
02 03:10 Calm 7.00 Overcast OVC033 53.8 51.4 92% 29.89 0.0
02 02:50 NW 3 7.00 Overcast SCT020 OVC033 53.8 51.8 93% 29.89 0.0
02 02:30 Calm 7.00 Overcast BKN020 OVC033 53.6 52 94% 29.89 0.0
02 02:10 Calm 7.00 Overcast SCT020 OVC033 53.2 51.6 94% 29.9 0.0
02 01:50 Calm 7.00 Partly Cloudy SCT033 52.7 51.8 55.4 52.5 97% 29.9 0.0
02 01:30 Calm 7.00 Fair CLR 52.9 51.8 96% 29.9 0.0
02 01:10 Calm 7.00 Fair CLR 53.1 51.4 94% 29.91 0.0
02 00:50 Calm 7.00 Fair CLR 53.2 51.4 94% 29.92 0.0
02 00:30 Calm 10.00 Fair CLR 54 51.3 91% 29.92 0.0
02 00:10 Calm 10.00 Fair CLR 54.3 51.1 89% 29.91 0.0
01 23:50 Calm 10.00 Fair CLR 54.7 50.9 87% 29.92 0.0
01 23:30 Calm 10.00 Partly Cloudy SCT041 54.3 51.4 90% 29.92 0.0
01 23:10 Calm 10.00 Mostly Cloudy SCT026 BKN041 54.5 51.4 89% 29.93 0.0
01 22:50 Calm 10.00 Overcast SCT026 BKN038 OVC047 54.1 51.8 92% 29.93 0.0
01 22:30 Calm 10.00 Overcast OVC042 54.3 51.8 91% 29.93 0.0
01 22:10 Calm 10.00 Overcast BKN041 OVC049 53.8 51.8 93% 29.94 0.0
01 21:50 Calm 10.00 Partly Cloudy SCT039 SCT049 53.6 51.1 91% 29.94 0.0
01 21:30 Calm 10.00 Fair CLR 54 50.2 87% 29.94 0.0
01 21:10 Calm 10.00 Partly Cloudy SCT046 55 50.2 84% 29.93 0.0
01 20:50 SE 3 10.00 Mostly Cloudy BKN046 55 50.7 85% 29.92 0.0
01 20:30 SE 3 10.00 Overcast BKN046 OVC055 55 50.9 86% 29.93 0.0
01 20:10 E 3 7.00 Overcast SCT045 OVC055 55.2 50.7 85% 29.93 0.0
01 19:50 SE 3 7.00 Overcast SCT036 OVC047 55.4 50.9 63.9 55.4 85% 29.93 0.0
01 19:30 Calm 7.00 Overcast SCT038 OVC049 55.4 50.2 83% 29.93 0.0
01 19:10 Calm 7.00 Light Rain SCT038 OVC047 55.6 49.5 80% 29.93 0.0
01 18:50 S 3 7.00 Overcast BKN038 OVC047 56.7 48.9 75% 29.93 0.0
01 18:30 Calm 7.00 Overcast BKN042 OVC049 56.8 48.7 74% 29.94 0.0
01 18:10 Calm 7.00 Overcast BKN044 OVC050 57.4 47.5 70% 29.94 0.0
01 17:50 Calm 7.00 Overcast OVC060 57.4 47.8 71% 29.94 0.0
01 17:30 S 3 7.00 Overcast OVC060 57.7 47.7 69% 29.93 0.0
01 17:10 S 3 7.00 Overcast OVC060 57.7 47.3 68% 29.94 0.0
01 16:50 S 5 7.00 Overcast OVC060 58.8 44.8 60% 29.94 0.0
01 16:30 SE 7 7.00 Overcast BKN060 OVC080 59.9 46 60% 29.93 0.0
01 16:10 S 6 7.00 Overcast SCT060 OVC070 58.8 46.4 64% 29.94 0.0
01 15:50 S 5 7.00 Overcast OVC060 59.2 46.6 63% 29.96 0.0
01 15:30 S 3 7.00 Overcast SCT060 OVC070 60.4 44.2 55% 29.96 0.0
01 15:10 SE 6 10.00 Overcast OVC070 62.1 43.2 50% 29.97 0.0
01 14:50 S 3 10.00 Overcast BKN080 OVC100 63 43 48% 29.97 0.0
01 14:30 S 7 7.00 Overcast OVC080 61.9 43 50% 29.98 0.0
01 14:10 SE 6 7.00 Mostly Cloudy BKN080 BKN090 61.9 41.9 48% 29.99 0.0
01 13:50 E 3 7.00 Mostly Cloudy BKN080 62.2 41.2 62.6 50.7 46% 29.98 0.0
01 13:30 E 5 10.00 Overcast OVC080 60.6 40.8 48% 29.99 0.0
01 13:10 SE 3 7.00 Overcast OVC080 60.1 40.5 49% 30 0.0
01 12:50 E 5 7.00 Overcast OVC080 59.7 39.6 47% 30 0.0
01 12:30 Calm 7.00 Overcast OVC080 60.3 39.4 46% 30.01 0.0
01 12:10 SE 6 7.00 Overcast BKN090 OVC120 60.3 38.3 44% 30.01 0.0
01 11:50 E 7 7.00 Mostly Cloudy BKN090 BKN120 60.4 38.7 45% 30.02 0.0
01 11:30 E 6 7.00 Mostly Cloudy BKN100 BKN120 59.4 39.2 47% 30.02 0.0
01 11:10 E 6 7.00 Overcast OVC100 58.5 38.1 47% 30.02 0.0
01 10:50 E 6 7.00 Overcast BKN100 OVC120 58.8 38.1 46% 30.02 0.0
01 10:30 NE 7 7.00 Overcast BKN090 OVC120 58.3 37.8 47% 30.02 0.0
01 10:10 NE 7 10.00 Overcast OVC090 57.7 36.7 46% 30.02 0.0
01 09:50 NE 7 7.00 Mostly Cloudy BKN090 57.4 37.6 48% 30.01 0.0
01 09:30 N 7 10.00 Mostly Cloudy BKN090 56.5 38.3 51% 30.01 0.0
01 09:10 NE 10 7.00 Partly Cloudy SCT090 SCT110 55.9 37.8 51% 30.01 0.0
01 08:50 NE 13 7.00 Mostly Cloudy SCT100 BKN110 54.7 37.8 53% 30.01 0.0
01 08:30 NE 10 7.00 Fair CLR 54.1 39.9 59% 30.01 0.0
01 08:10 NE 5 7.00 Partly Cloudy SCT110 53.1 42.4 67% 30.02 0.0
01 07:50 NE 3 7.00 Mostly Cloudy BKN110 50.4 43.3 52.2 44.1 77% 30.01 0.0
01 07:30 Calm 7.00 Overcast OVC100 49.5 41.7 75% 30.01 0.0
01 07:10 N 3 7.00 Overcast OVC090 48.9 41 74% 30 0.0
01 06:50 N 3 7.00 Mostly Cloudy BKN090 48.2 41.2 77% 30 0.0
01 06:30 N 3 7.00 Fair CLR 46.9 41 80% 29.99 0.0
01 06:10 Calm 7.00 Fair CLR 44.6 42.6 93% 29.99 0.0
01 05:50 Calm 10.00 Fair CLR 45.5 42.3 89% 29.99 0.0
01 05:30 Calm 10.00 Fair CLR 45.5 42.1 88% 29.99 0.0
01 04:50 Calm 10.00 Fair CLR 45 42.1 90% 29.99 0.0
01 04:30 Calm 10.00 Fair CLR 47.7 40.8 77% 29.98 0.0
01 04:10 Calm 10.00 Partly Cloudy SCT100 50 41 71% 29.96 0.0
01 03:50 Calm 10.00 Mostly Cloudy SCT080 BKN100 46.6 42.8 87% 29.96 0.0
01 03:30 Calm 10.00 Partly Cloudy SCT080 SCT100 48.6 41.7 77% 29.96 0.0
01 03:10 Calm 10.00 Partly Cloudy SCT090 51.4 41.5 69% 29.96 0.0
01 02:50 Calm 10.00 Overcast OVC080 51.8 41.9 69% 29.95 0.0
01 02:30 Calm 10.00 Mostly Cloudy BKN080 51.4 42.4 71% 29.95 0.0
01 02:10 N 3 10.00 Partly Cloudy SCT080 51.4 43.2 73% 29.94 0.0
01 01:50 Calm 10.00 Fair CLR 52.2 43.3 61.2 49.8 72% 29.94 0.0
Date Time (edt) Wind (mph) Vis. (mi.) Weather Sky Cond. Air Dwpt Max. Min. Relative Humidity Wind Chill (°F) Heat Index (°F) altimeter (in) sea level (mb) 1 hr 3 hr 6 hr
6 hour
Temperature (ºF) Pressure Precipitation (in)